Time;durP1;ratioP1;P1;durP2;ratioP2;P2;SDS_P1;SDS_P2;PMS_P1;PMS_P2;Temp;Humidity;BMP_temperature;BMP_pressure;BME280_temperature;BME280_humidity;BME280_pressure;Samples;Min_cycle;Max_cycle;Signal;HPM_P1;HPM_P2
2023/04/16 00:01:46;;;;;;;3.25;0.90;;;;;;;19.14;41.15;102101.19;4995964;28;20065;-68
2023/04/16 00:04:11;;;;;;;3.53;0.80;;;;;;;19.12;41.04;102096.00;4999652;28;20045;-68
2023/04/16 00:06:37;;;;;;;2.05;0.90;;;;;;;19.12;41.06;102098.63;4991104;28;21109;-68
2023/04/16 00:09:02;;;;;;;3.28;1.00;;;;;;;19.10;41.05;102097.84;4990558;28;20132;-67
2023/04/16 00:11:27;;;;;;;2.90;0.90;;;;;;;19.10;41.39;102100.50;4987110;28;20047;-69
2023/04/16 00:13:52;;;;;;;2.70;0.97;;;;;;;19.10;41.13;102099.66;4990257;28;20038;-68
2023/04/16 00:16:18;;;;;;;3.87;1.20;;;;;;;19.09;41.38;102101.47;4994210;28;20268;-70
2023/04/16 00:18:43;;;;;;;6.57;1.17;;;;;;;19.09;41.08;102104.13;4985620;28;20295;-69
2023/04/16 00:21:08;;;;;;;2.67;1.00;;;;;;;19.08;41.08;102099.78;5000449;28;20483;-67
2023/04/16 00:23:34;;;;;;;5.05;1.10;;;;;;;19.08;41.38;102105.06;5004541;28;20053;-69
2023/04/16 00:25:59;;;;;;;2.67;1.00;;;;;;;19.06;41.14;102096.38;4982266;28;20069;-69
2023/04/16 00:28:26;;;;;;;4.70;1.25;;;;;;;19.05;40.86;102097.31;4996739;28;20041;-69
2023/04/16 00:30:52;;;;;;;2.88;0.95;;;;;;;19.04;41.02;102103.53;4976378;28;20045;-67
2023/04/16 00:33:17;;;;;;;2.25;0.90;;;;;;;19.03;40.94;102102.72;5004310;28;20033;-69
2023/04/16 00:35:45;;;;;;;2.95;0.80;;;;;;;19.03;40.89;102097.41;4990856;28;20430;-69
2023/04/16 00:38:10;;;;;;;1.95;0.80;;;;;;;19.01;41.31;102094.03;4988005;28;20074;-69
2023/04/16 00:40:36;;;;;;;2.70;1.20;;;;;;;19.01;41.08;102096.69;4984969;28;20805;-68
2023/04/16 00:43:01;;;;;;;3.33;0.80;;;;;;;19.01;41.01;102104.59;4992841;28;20034;-68
2023/04/16 00:45:27;;;;;;;3.33;1.00;;;;;;;19.02;41.13;102098.34;5002083;28;20037;-67
2023/04/16 00:47:52;;;;;;;2.38;0.95;;;;;;;18.99;41.09;102095.94;5000103;28;20355;-68
2023/04/16 00:50:17;;;;;;;2.60;0.82;;;;;;;18.99;41.09;102095.94;4986908;28;20042;-70
2023/04/16 00:52:45;;;;;;;3.70;1.00;;;;;;;18.99;41.18;102098.59;5000987;28;20470;-68
2023/04/16 00:55:12;;;;;;;2.92;1.17;;;;;;;18.97;41.12;102091.69;5000472;28;20030;-68
2023/04/16 00:57:37;;;;;;;2.67;0.80;;;;;;;18.98;41.20;102101.34;4994279;28;20030;-69
2023/04/16 01:00:03;;;;;;;2.42;0.80;;;;;;;18.99;41.13;102097.72;5001878;28;20493;-68
2023/04/16 01:02:29;;;;;;;2.88;0.80;;;;;;;18.97;41.07;102089.06;4984303;28;20030;-68
2023/04/16 01:04:54;;;;;;;3.83;1.00;;;;;;;18.95;41.09;102091.78;4989135;28;20037;-68
2023/04/16 01:07:19;;;;;;;5.07;0.90;;;;;;;18.93;41.12;102090.19;4978874;28;20324;-69
2023/04/16 01:09:45;;;;;;;2.53;1.00;;;;;;;18.94;41.27;102095.38;4991873;28;20137;-69
2023/04/16 01:12:10;;;;;;;3.70;0.90;;;;;;;18.95;41.15;102094.44;4996531;28;20100;-69
2023/04/16 01:14:36;;;;;;;3.35;1.00;;;;;;;18.92;41.21;102089.34;4995394;28;20046;-68
2023/04/16 01:17:02;;;;;;;3.33;0.80;;;;;;;18.93;41.26;102098.97;4966257;28;20062;-68
2023/04/16 01:19:30;;;;;;;4.22;1.02;;;;;;;18.92;41.00;102093.81;4983973;28;20046;-67
2023/04/16 01:21:55;;;;;;;4.35;1.02;;;;;;;18.93;41.12;102090.19;4990737;28;20537;-70
2023/04/16 01:24:21;;;;;;;3.42;1.38;;;;;;;18.90;41.17;102087.75;4972132;28;20049;-68
2023/04/16 01:26:46;;;;;;;3.72;0.90;;;;;;;18.92;41.06;102091.16;4992260;28;20045;-68
2023/04/16 01:29:11;;;;;;;3.17;1.10;;;;;;;18.92;41.30;102093.81;4998857;28;20065;-69
2023/04/16 01:31:36;;;;;;;3.13;1.00;;;;;;;18.90;41.29;102093.03;4983699;28;20275;-67
2023/04/16 01:34:02;;;;;;;4.30;1.20;;;;;;;18.89;41.28;102094.84;4988586;28;20390;-68
2023/04/16 01:36:27;;;;;;;3.20;0.98;;;;;;;18.85;41.08;102088.91;4995274;28;20354;-68
2023/04/16 01:38:52;;;;;;;3.50;1.00;;;;;;;18.90;41.20;102098.31;4983426;28;20042;-68
2023/04/16 01:41:18;;;;;;;2.38;0.90;;;;;;;18.88;41.18;102092.28;4996911;28;20168;-70
2023/04/16 01:43:43;;;;;;;3.55;1.10;;;;;;;18.89;41.15;102099.28;4992874;28;20318;-70
2023/04/16 01:46:28;;;;;;;2.50;0.90;;;;;;;18.89;41.21;102099.28;4969857;28;21351;-69
2023/04/16 01:48:53;;;;;;;1.83;0.73;;;;;;;18.89;41.16;102099.28;4988644;28;20064;-71
2023/04/16 01:51:19;;;;;;;3.10;1.10;;;;;;;18.89;41.00;102102.75;4969569;28;20030;-68
2023/04/16 01:53:45;;;;;;;4.70;1.17;;;;;;;18.87;41.27;102099.38;4997487;28;20033;-68
2023/04/16 01:56:10;;;;;;;2.85;1.05;;;;;;;18.84;41.17;102097.78;4978191;28;20120;-69
2023/04/16 01:58:35;;;;;;;4.30;1.00;;;;;;;18.85;41.43;102104.75;4984080;28;20034;-68
2023/04/16 02:01:01;;;;;;;2.42;0.90;;;;;;;18.83;41.37;102093.41;4977453;28;20034;-68
2023/04/16 02:03:26;;;;;;;2.90;1.02;;;;;;;18.83;41.01;102101.34;4992015;28;20049;-68
2023/04/16 02:05:52;;;;;;;3.10;1.08;;;;;;;18.85;41.17;102099.47;4994405;28;20026;-69
2023/04/16 02:08:17;;;;;;;2.65;1.00;;;;;;;18.83;41.19;102093.41;4983158;28;20471;-68
2023/04/16 02:10:46;;;;;;;2.47;0.90;;;;;;;18.81;41.39;102092.66;4984240;28;20037;-68
2023/04/16 02:13:13;;;;;;;3.20;0.95;;;;;;;18.83;41.26;102100.47;4983024;28;20030;-68
2023/04/16 02:15:38;;;;;;;2.85;0.95;;;;;;;18.81;41.23;102100.56;4989334;28;20081;-70
2023/04/16 02:18:03;;;;;;;3.27;1.00;;;;;;;18.80;41.41;102093.63;4993758;28;20029;-68
2023/04/16 02:20:29;;;;;;;2.95;0.85;;;;;;;18.83;41.25;102092.56;4998187;28;20346;-68
2023/04/16 02:22:54;;;;;;;2.90;1.15;;;;;;;18.82;41.06;102093.53;4982610;28;20116;-69
2023/04/16 02:25:20;;;;;;;4.50;1.17;;;;;;;18.79;41.23;102089.28;4987221;28;20053;-68
2023/04/16 02:27:45;;;;;;;4.32;1.60;;;;;;;18.81;41.09;102097.09;4965824;28;20290;-69
2023/04/16 02:30:10;;;;;;;3.27;0.90;;;;;;;18.81;41.13;102103.22;4987222;28;20042;-68
2023/04/16 02:32:36;;;;;;;4.10;1.17;;;;;;;18.79;41.24;102093.72;4982723;28;20271;-68
2023/04/16 02:35:02;;;;;;;3.17;0.90;;;;;;;18.74;41.26;102085.22;4982344;28;20145;-68
2023/04/16 02:37:28;;;;;;;2.65;0.98;;;;;;;18.81;41.32;102091.81;4986965;28;20433;-67
2023/04/16 02:39:53;;;;;;;3.22;1.00;;;;;;;18.80;41.39;102085.69;5001904;28;20048;-69
2023/04/16 02:42:18;;;;;;;3.13;1.00;;;;;;;18.79;41.27;102091.06;4994234;28;20090;-68
2023/04/16 02:44:44;;;;;;;2.65;0.90;;;;;;;18.80;41.21;102090.09;4990187;28;20065;-68
2023/04/16 02:47:09;;;;;;;2.28;0.73;;;;;;;18.81;41.47;102095.28;4994550;28;20477;-68
2023/04/16 02:49:34;;;;;;;3.78;1.33;;;;;;;18.78;41.42;102092.00;5001817;28;20763;-67
2023/04/16 02:52:00;;;;;;;2.65;0.90;;;;;;;18.80;41.22;102101.53;5001126;28;20084;-68
2023/04/16 02:54:25;;;;;;;4.10;1.00;;;;;;;18.78;41.20;102106.06;4983943;28;20034;-67
2023/04/16 02:56:50;;;;;;;2.78;1.00;;;;;;;18.79;41.40;102112.22;4992489;28;20050;-68
2023/04/16 02:59:15;;;;;;;3.47;1.10;;;;;;;18.80;41.37;102106.81;4990218;28;20639;-70
2023/04/16 03:01:41;;;;;;;5.97;2.25;;;;;;;18.79;41.44;102115.69;4984434;28;20042;-69
2023/04/16 03:04:06;;;;;;;2.78;1.00;;;;;;;18.79;41.41;102112.22;4992132;28;20391;-69
2023/04/16 03:06:31;;;;;;;3.15;1.10;;;;;;;18.79;41.28;102113.03;5001535;28;20030;-68
2023/04/16 03:08:57;;;;;;;3.92;1.25;;;;;;;18.78;41.28;102113.13;4994979;28;20061;-68
2023/04/16 03:11:22;;;;;;;4.82;1.42;;;;;;;18.77;41.38;102111.44;4991779;28;20039;-69
2023/04/16 03:13:47;;;;;;;2.25;0.80;;;;;;;18.77;41.25;102116.72;4982131;28;20116;-69
2023/04/16 03:16:13;;;;;;;4.55;1.20;;;;;;;18.76;41.36;102120.31;4989113;28;20197;-68
2023/04/16 03:18:38;;;;;;;4.28;1.13;;;;;;;18.74;41.36;102115.13;4988903;28;20034;-68
2023/04/16 03:21:03;;;;;;;2.90;1.07;;;;;;;18.76;41.17;102122.97;4974667;28;20920;-68
2023/04/16 03:23:29;;;;;;;2.95;1.10;;;;;;;18.74;41.59;102122.19;4999406;28;20295;-68
2023/04/16 03:25:54;;;;;;;2.70;1.27;;;;;;;18.74;41.52;102116.91;4987288;28;20128;-68
2023/04/16 03:28:20;;;;;;;5.50;1.48;;;;;;;18.74;41.43;102117.78;4983053;28;20045;-68
2023/04/16 03:30:52;;;;;;;2.85;1.10;;;;;;;18.73;41.45;102125.78;4994095;28;20061;-68
2023/04/16 03:33:18;;;;;;;4.13;1.10;;;;;;;18.74;41.66;102130.13;5001466;28;20038;-68
2023/04/16 03:35:43;;;;;;;3.25;1.10;;;;;;;18.73;41.40;102128.44;4991725;28;20128;-68
2023/04/16 03:38:09;;;;;;;4.25;1.40;;;;;;;18.72;41.46;102127.56;4988775;28;20064;-68
2023/04/16 03:40:34;;;;;;;3.38;1.15;;;;;;;18.73;41.36;102133.72;4986263;28;20077;-68
2023/04/16 03:42:59;;;;;;;3.45;1.20;;;;;;;18.71;41.55;102125.03;4994984;28;20026;-68
2023/04/16 03:45:25;;;;;;;4.50;1.40;;;;;;;18.71;41.41;102127.66;4985922;28;20065;-70
2023/04/16 03:47:51;;;;;;;3.53;1.20;;;;;;;18.70;41.48;102121.53;4985504;28;20128;-69
2023/04/16 03:50:19;;;;;;;3.55;1.20;;;;;;;18.69;41.40;102125.13;4983066;28;20786;-69
2023/04/16 03:52:45;;;;;;;4.70;1.88;;;;;;;18.68;41.40;102126.09;4989986;28;20493;-68
2023/04/16 03:55:11;;;;;;;4.35;1.60;;;;;;;18.69;41.48;102125.13;4993741;28;20041;-68
2023/04/16 03:57:37;;;;;;;3.42;1.30;;;;;;;18.66;41.35;102123.53;5000991;28;20026;-69
2023/04/16 04:00:03;;;;;;;2.75;1.10;;;;;;;18.68;41.53;102132.22;4977488;28;20045;-68
2023/04/16 04:02:28;;;;;;;3.38;1.27;;;;;;;18.68;41.44;102124.28;4981308;28;20041;-67
2023/04/16 04:04:53;;;;;;;4.93;1.70;;;;;;;18.68;41.33;102123.44;4989933;28;20399;-69
2023/04/16 04:07:19;;;;;;;4.18;1.50;;;;;;;18.65;41.35;102124.47;4987599;28;20116;-70
2023/04/16 04:09:44;;;;;;;3.58;1.27;;;;;;;18.65;41.44;102123.63;5001669;28;20073;-69
2023/04/16 04:12:09;;;;;;;4.70;1.60;;;;;;;18.64;41.76;102127.22;5000718;28;20475;-67
2023/04/16 04:14:38;;;;;;;3.47;1.58;;;;;;;18.68;41.46;102131.38;4987090;28;20089;-67
2023/04/16 04:17:07;;;;;;;4.22;1.50;;;;;;;18.61;41.31;102115.06;4992912;28;20490;-68
2023/04/16 04:19:33;;;;;;;4.50;1.52;;;;;;;18.65;41.55;102118.34;4994564;28;20397;-68
2023/04/16 04:21:58;;;;;;;3.40;1.63;;;;;;;18.68;41.44;102134.84;4999240;28;20044;-69
2023/04/16 04:24:23;;;;;;;3.65;1.58;;;;;;;18.66;41.34;102126.19;4992392;28;20057;-69
2023/04/16 04:26:49;;;;;;;3.80;1.55;;;;;;;18.68;41.44;102124.28;4980750;28;20040;-68
2023/04/16 04:29:14;;;;;;;4.93;1.73;;;;;;;18.66;41.64;102122.69;4990453;28;20499;-68
2023/04/16 04:31:39;;;;;;;3.40;1.50;;;;;;;18.69;41.43;102125.13;4964288;28;20418;-68
2023/04/16 04:34:05;;;;;;;3.92;1.67;;;;;;;18.69;41.39;102133.03;4989899;28;20037;-69
2023/04/16 04:36:31;;;;;;;5.45;1.73;;;;;;;18.67;41.63;102138.44;4986424;28;20038;-69
2023/04/16 04:38:56;;;;;;;3.70;1.60;;;;;;;18.67;41.63;102133.16;4986102;28;20415;-67
2023/04/16 04:41:21;;;;;;;2.83;1.35;;;;;;;18.66;41.41;102135.91;4993869;28;20040;-67
2023/04/16 04:43:47;;;;;;;4.60;1.52;;;;;;;18.58;41.31;102128.47;4987900;28;20034;-69
2023/04/16 04:46:12;;;;;;;5.78;1.73;;;;;;;18.61;41.52;102135.31;4984562;28;20117;-68
2023/04/16 04:48:37;;;;;;;3.90;1.50;;;;;;;18.63;41.44;102142.22;4995000;28;20034;-67
2023/04/16 04:51:03;;;;;;;4.77;1.67;;;;;;;18.63;41.56;102146.66;4993727;28;20038;-67
2023/04/16 04:53:28;;;;;;;4.53;1.70;;;;;;;18.62;41.40;102145.78;4984421;28;20264;-68
2023/04/16 04:55:54;;;;;;;3.70;1.58;;;;;;;18.62;41.40;102145.78;4984540;28;20105;-69
2023/04/16 04:58:19;;;;;;;4.25;1.55;;;;;;;18.62;41.65;102144.94;4993113;28;20037;-67
2023/04/16 05:00:45;;;;;;;3.53;1.50;;;;;;;18.63;41.73;102157.22;5004022;28;20033;-67
2023/04/16 05:03:11;;;;;;;4.25;1.73;;;;;;;18.60;41.53;102145.03;4995948;28;20046;-68
2023/04/16 05:05:40;;;;;;;3.78;1.65;;;;;;;18.62;41.66;102150.22;4987405;28;20033;-68
2023/04/16 05:08:05;;;;;;;3.58;1.60;;;;;;;18.60;41.54;102152.13;4985704;28;20042;-69
2023/04/16 05:10:31;;;;;;;3.05;1.40;;;;;;;18.58;41.48;102146.94;4995104;28;20037;-68
2023/04/16 05:12:56;;;;;;;3.80;1.52;;;;;;;18.53;41.80;102151.63;4980236;28;20066;-68
2023/04/16 05:15:21;;;;;;;3.50;1.50;;;;;;;18.54;41.77;102161.28;5000825;28;20037;-68
2023/04/16 05:17:47;;;;;;;3.53;1.40;;;;;;;18.53;41.85;102151.63;4992112;28;20040;-68
2023/04/16 05:20:12;;;;;;;3.10;1.20;;;;;;;18.55;41.74;102144.50;4983778;28;20101;-68
2023/04/16 05:22:37;;;;;;;2.22;1.05;;;;;;;18.55;41.72;102157.69;4977741;28;20642;-69
2023/04/16 05:25:03;;;;;;;3.70;1.40;;;;;;;18.58;41.76;102160.16;4983036;28;20038;-69
2023/04/16 05:27:28;;;;;;;3.35;1.40;;;;;;;18.59;41.88;102147.78;4983717;28;20113;-68
2023/04/16 05:29:54;;;;;;;4.15;1.40;;;;;;;18.62;41.91;102163.44;4985471;28;20034;-69
2023/04/16 05:32:19;;;;;;;3.10;1.35;;;;;;;18.67;41.74;102156.94;4983963;28;20701;-69
2023/04/16 05:34:44;;;;;;;2.88;1.30;;;;;;;18.71;41.92;102159.34;4983524;28;20023;-67
2023/04/16 05:37:10;;;;;;;3.53;1.38;;;;;;;18.72;41.68;102164.53;4983658;28;20041;-69
2023/04/16 05:39:35;;;;;;;2.53;1.20;;;;;;;18.71;41.93;102152.31;4986662;28;20038;-69
2023/04/16 05:42:00;;;;;;;3.58;1.35;;;;;;;18.78;41.69;102173.88;4984160;28;20038;-67
2023/04/16 05:44:26;;;;;;;3.67;1.30;;;;;;;18.82;41.87;102180.69;4989678;28;20856;-68
2023/04/16 05:46:51;;;;;;;3.53;1.30;;;;;;;18.83;42.10;102175.31;4983661;28;20114;-68
2023/04/16 05:49:17;;;;;;;4.38;1.25;;;;;;;18.87;41.94;102181.25;4976534;28;20268;-68
2023/04/16 05:51:43;;;;;;;3.58;1.30;;;;;;;18.87;41.75;102169.81;5002953;28;20081;-68
2023/04/16 05:54:08;;;;;;;3.47;1.30;;;;;;;18.92;41.52;102186.25;5002499;28;20053;-66
2023/04/16 05:56:33;;;;;;;2.97;1.20;;;;;;;18.92;41.84;102180.97;4983268;28;20509;-68
2023/04/16 05:58:59;;;;;;;2.90;1.20;;;;;;;18.93;41.69;102183.53;4965868;28;20472;-67
2023/04/16 06:01:24;;;;;;;3.92;1.23;;;;;;;18.96;41.59;102191.25;4983452;28;20158;-67
2023/04/16 06:03:49;;;;;;;3.42;1.30;;;;;;;18.97;41.64;102192.09;4982593;28;20089;-69
2023/04/16 06:06:15;;;;;;;3.55;1.30;;;;;;;18.99;41.56;102192.81;4990021;28;20076;-68
2023/04/16 06:08:40;;;;;;;4.15;1.50;;;;;;;18.98;41.54;102193.78;4987287;28;20513;-70
2023/04/16 06:11:05;;;;;;;4.40;1.37;;;;;;;18.98;41.80;102194.63;4983473;28;20026;-69
2023/04/16 06:13:30;;;;;;;4.32;1.35;;;;;;;18.99;41.66;102196.34;4983017;28;20268;-68
2023/04/16 06:15:56;;;;;;;4.20;1.50;;;;;;;18.99;41.65;102187.53;4983258;28;20038;-68
2023/04/16 06:18:21;;;;;;;3.85;1.50;;;;;;;18.97;41.59;102192.09;4989370;28;20656;-69
2023/04/16 06:20:46;;;;;;;4.40;1.42;;;;;;;18.99;41.58;102198.97;4983356;28;20038;-67
2023/04/16 06:23:12;;;;;;;3.83;1.50;;;;;;;18.98;41.74;102197.28;4989391;28;20904;-67
2023/04/16 06:25:37;;;;;;;3.20;1.27;;;;;;;18.97;41.74;102190.28;5001317;28;20048;-68
2023/04/16 06:28:02;;;;;;;3.58;1.20;;;;;;;18.99;41.66;102192.81;5002015;28;20121;-69
2023/04/16 06:30:27;;;;;;;3.07;1.17;;;;;;;18.99;41.72;102191.06;4989519;28;20053;-68
2023/04/16 06:32:53;;;;;;;3.13;1.15;;;;;;;19.01;41.55;102206.81;4982436;28;20835;-67
2023/04/16 06:35:19;;;;;;;3.45;1.40;;;;;;;18.98;41.50;102205.19;4992614;28;20030;-68
2023/04/16 06:37:45;;;;;;;3.67;1.30;;;;;;;18.98;41.72;102207.00;4993105;28;20050;-67
2023/04/16 06:40:10;;;;;;;3.42;1.38;;;;;;;18.97;41.80;102208.78;4982273;28;20045;-68
2023/04/16 06:42:36;;;;;;;4.05;1.33;;;;;;;18.98;41.46;102207.84;4986802;28;20403;-68
2023/04/16 06:45:01;;;;;;;4.43;1.50;;;;;;;18.99;41.67;102214.84;5001689;28;20109;-69
2023/04/16 06:47:26;;;;;;;3.15;1.25;;;;;;;18.99;41.77;102212.19;4988821;28;20817;-69
2023/04/16 06:49:51;;;;;;;4.10;1.50;;;;;;;18.97;41.42;102222.00;5001247;28;20038;-68
2023/04/16 06:52:17;;;;;;;4.47;1.50;;;;;;;18.97;41.45;102224.63;4991710;28;20475;-69
2023/04/16 06:54:42;;;;;;;3.13;1.30;;;;;;;18.98;41.51;102228.13;4982082;28;20113;-68
2023/04/16 06:57:07;;;;;;;4.30;1.30;;;;;;;18.96;41.55;102228.22;4988147;28;20029;-69
2023/04/16 06:59:33;;;;;;;3.47;1.30;;;;;;;18.97;41.61;102231.72;5001529;28;20283;-68
2023/04/16 07:01:58;;;;;;;4.00;1.70;;;;;;;18.97;41.75;102235.19;4992324;28;20030;-68
2023/04/16 07:04:23;;;;;;;4.15;1.50;;;;;;;18.95;41.62;102233.63;4987243;28;20263;-67
2023/04/16 07:06:48;;;;;;;4.00;1.27;;;;;;;18.96;41.80;102236.16;5001323;28;20034;-69
2023/04/16 07:09:14;;;;;;;4.65;1.67;;;;;;;18.97;41.58;102244.94;5001604;28;20655;-68
2023/04/16 07:11:40;;;;;;;3.38;1.30;;;;;;;18.96;41.60;102249.38;5001909;28;20033;-70
2023/04/16 07:14:05;;;;;;;3.35;1.30;;;;;;;18.95;41.65;102246.81;4999422;28;20026;-68
2023/04/16 07:16:31;;;;;;;4.90;1.30;;;;;;;18.96;41.48;102248.50;4970544;28;20032;-70
2023/04/16 07:18:56;;;;;;;4.82;1.50;;;;;;;18.94;41.70;102253.03;5000219;28;20029;-68
2023/04/16 07:21:21;;;;;;;3.83;1.73;;;;;;;18.96;41.61;102257.28;5001792;28;20033;-68
2023/04/16 07:23:47;;;;;;;6.00;2.03;;;;;;;18.96;41.71;102259.06;4997885;28;20350;-65
2023/04/16 07:26:12;;;;;;;5.55;1.90;;;;;;;18.96;41.48;102259.06;4999208;28;20042;-67
2023/04/16 07:28:37;;;;;;;4.63;1.90;;;;;;;18.96;41.58;102261.72;4997650;28;20041;-68
2023/04/16 07:31:03;;;;;;;5.40;1.90;;;;;;;18.98;41.66;102258.03;5001243;28;20577;-68
2023/04/16 07:33:28;;;;;;;4.72;1.75;;;;;;;18.95;41.81;102265.31;4996618;28;20065;-69
2023/04/16 07:35:53;;;;;;;4.57;1.70;;;;;;;18.97;42.14;102263.41;4982026;28;20042;-68
2023/04/16 07:38:18;;;;;;;4.85;1.77;;;;;;;18.97;42.12;102269.53;4980980;28;20374;-67
2023/04/16 07:40:44;;;;;;;4.32;1.70;;;;;;;18.94;42.34;102269.72;4965887;28;20037;-69
2023/04/16 07:43:09;;;;;;;4.18;1.80;;;;;;;18.97;42.67;102266.91;4975611;28;20041;-67
2023/04/16 07:45:35;;;;;;;5.25;1.90;;;;;;;18.99;42.63;102278.25;4980608;28;20038;-68
2023/04/16 07:48:00;;;;;;;4.18;1.80;;;;;;;19.01;43.01;102275.50;4988903;28;20084;-68
2023/04/16 07:50:26;;;;;;;4.07;1.70;;;;;;;18.99;42.74;102277.38;4993144;28;20081;-69
2023/04/16 07:52:51;;;;;;;4.85;1.88;;;;;;;19.01;43.03;102273.69;4981503;28;20045;-68
2023/04/16 07:55:16;;;;;;;4.13;1.70;;;;;;;19.00;42.95;102273.78;4996766;28;20084;-69
2023/04/16 07:57:41;;;;;;;7.55;2.10;;;;;;;19.08;42.92;102283.88;4978428;28;20390;-68
2023/04/16 08:00:08;;;;;;;5.50;2.17;;;;;;;19.17;42.70;102278.88;4975217;28;20079;-66
2023/04/16 08:02:33;;;;;;;5.40;2.08;;;;;;;19.21;42.90;102290.94;4999908;28;20049;-67
2023/04/16 08:04:58;;;;;;;6.07;2.47;;;;;;;19.24;43.00;102291.69;4981104;28;20065;-70
2023/04/16 08:07:24;;;;;;;5.00;2.20;;;;;;;19.24;42.93;102289.91;4980184;28;20046;-66
2023/04/16 08:09:51;;;;;;;6.57;2.38;;;;;;;19.27;42.84;102292.34;4995580;28;20129;-66
2023/04/16 08:12:17;;;;;;;4.65;2.40;;;;;;;19.25;43.10;102298.66;4998740;28;20040;-67
2023/04/16 08:14:43;;;;;;;5.03;2.17;;;;;;;19.24;43.32;102299.63;4977164;28;20029;-68
2023/04/16 08:17:09;;;;;;;4.70;2.05;;;;;;;19.21;43.38;102300.66;4986070;28;20038;-66
2023/04/16 08:19:35;;;;;;;5.90;2.53;;;;;;;19.17;43.71;102300.00;4989964;28;20038;-66
2023/04/16 08:22:00;;;;;;;6.47;2.70;;;;;;;19.18;43.62;102306.13;5003996;28;20071;-66
2023/04/16 08:24:25;;;;;;;5.57;2.50;;;;;;;19.18;43.55;102314.06;4998967;28;20060;-67
2023/04/16 08:26:51;;;;;;;5.60;2.27;;;;;;;19.14;43.81;102310.78;4991846;28;20058;-68
2023/04/16 08:29:16;;;;;;;6.55;3.10;;;;;;;19.13;43.63;102302.94;4989089;28;20263;-67
2023/04/16 08:31:41;;;;;;;7.18;2.38;;;;;;;19.12;43.96;102307.38;4997889;28;20034;-66
2023/04/16 08:34:07;;;;;;;5.85;2.80;;;;;;;19.15;43.94;102314.25;4998541;28;20026;-66
2023/04/16 08:36:32;;;;;;;5.97;2.92;;;;;;;19.14;43.90;102310.78;4994323;28;20097;-65
2023/04/16 08:38:57;;;;;;;5.30;2.30;;;;;;;19.13;43.99;102313.50;4992086;28;20031;-70
2023/04/16 08:41:24;;;;;;;6.23;2.67;;;;;;;19.11;44.08;102324.19;4997312;28;20264;-68
2023/04/16 08:43:52;;;;;;;6.22;2.63;;;;;;;19.09;44.21;102320.78;4985261;28;20279;-67
2023/04/16 08:46:21;;;;;;;7.07;2.58;;;;;;;19.08;44.08;102318.25;4998601;28;20065;-68
2023/04/16 08:48:48;;;;;;;6.63;2.72;;;;;;;19.16;44.09;102327.38;5000766;28;20083;-68
2023/04/16 08:51:16;;;;;;;6.30;2.58;;;;;;;19.30;43.80;102328.31;4987653;28;20061;-68
2023/04/16 08:54:01;;;;;;;6.88;2.58;;;;;;;19.35;43.52;102326.22;4994570;28;20038;-67
2023/04/16 08:56:27;;;;;;;6.57;2.50;;;;;;;19.46;43.06;102325.56;4998627;28;20041;-67
2023/04/16 08:58:53;;;;;;;7.10;2.58;;;;;;;19.49;42.99;102325.38;5002962;28;20033;-69
2023/04/16 09:01:19;;;;;;;6.72;3.00;;;;;;;19.49;42.93;102334.13;4994113;28;20034;-67
2023/04/16 09:03:48;;;;;;;5.93;2.72;;;;;;;19.48;43.10;102336.88;5000576;28;20387;-68
2023/04/16 09:06:15;;;;;;;6.80;2.88;;;;;;;19.47;43.17;102340.44;4996746;28;20041;-67
2023/04/16 09:08:42;;;;;;;6.50;3.15;;;;;;;19.45;43.12;102345.00;4984769;28;20038;-65
2023/04/16 09:11:08;;;;;;;6.55;2.83;;;;;;;19.40;43.08;102334.72;4996221;28;20034;-67
2023/04/16 09:13:33;;;;;;;7.22;2.90;;;;;;;19.32;43.33;102337.84;4992726;28;20937;-70
2023/04/16 09:15:59;;;;;;;6.20;2.72;;;;;;;19.34;43.41;102348.31;4997404;28;20054;-74
2023/04/16 09:18:26;;;;;;;8.13;2.70;;;;;;;19.24;43.36;102331.34;4987808;28;20034;-74
2023/04/16 09:20:52;;;;;;;8.93;3.00;;;;;;;19.29;43.51;102339.84;5002964;28;20030;-72
2023/04/16 09:23:17;;;;;;;8.48;3.08;;;;;;;19.19;43.75;102344.84;5000708;28;20050;-69
2023/04/16 09:25:43;;;;;;;7.82;3.08;;;;;;;19.14;44.05;102344.28;4999918;28;20034;-69
2023/04/16 09:28:09;;;;;;;9.82;3.33;;;;;;;19.07;44.13;102345.59;5002288;28;20544;-68
2023/04/16 09:30:36;;;;;;;7.18;2.92;;;;;;;19.06;44.15;102350.03;4988315;28;20034;-68
2023/04/16 09:33:21;;;;;;;7.07;3.10;;;;;;;19.03;44.27;102351.06;4988536;28;20100;-68
2023/04/16 09:35:51;;;;;;;6.35;3.00;;;;;;;19.00;44.05;102347.78;4989870;28;20502;-68
2023/04/16 09:38:18;;;;;;;5.90;2.88;;;;;;;19.03;44.43;102360.78;4977089;28;20038;-68
2023/04/16 09:40:44;;;;;;;6.10;3.28;;;;;;;19.00;44.32;102372.38;4983104;28;20563;-67
2023/04/16 09:43:13;;;;;;;8.65;3.35;;;;;;;19.02;44.36;102367.84;4998003;28;20528;-70
2023/04/16 09:45:52;;;;;;;6.70;3.30;;;;;;;19.01;44.44;102374.09;5003129;28;20049;-68
2023/04/16 09:48:36;;;;;;;5.93;2.40;;;;;;;19.01;44.36;102368.81;4991145;28;20030;-68
2023/04/16 09:51:05;;;;;;;7.63;3.13;;;;;;;19.01;44.15;102374.09;4990478;28;20080;-69
2023/04/16 09:53:30;;;;;;;7.53;2.90;;;;;;;19.02;44.29;102372.31;4997585;28;20041;-74
2023/04/16 09:56:00;;;;;;;6.43;2.92;;;;;;;19.00;44.65;102371.56;4994512;28;20042;-73
2023/04/16 09:58:26;;;;;;;7.55;3.58;;;;;;;19.04;44.28;102380.97;4997343;28;20033;-71
2023/04/16 10:01:08;;;;;;;6.90;2.95;;;;;;;19.06;44.16;102372.94;5001984;28;20426;-72
2023/04/16 10:03:35;;;;;;;6.82;3.30;;;;;;;19.11;44.05;102378.84;5002305;28;20482;-71
2023/04/16 10:06:15;;;;;;;6.03;2.90;;;;;;;19.06;44.43;102376.47;4998976;28;20490;-72
2023/04/16 10:08:47;;;;;;;8.88;3.05;;;;;;;19.02;44.53;102374.94;4991878;28;20038;-69
2023/04/16 10:11:12;;;;;;;7.50;3.10;;;;;;;18.97;44.64;102377.84;4991788;28;20398;-72
2023/04/16 10:13:38;;;;;;;7.93;2.80;;;;;;;18.97;44.43;102372.56;4995837;28;20501;-70
2023/04/16 10:16:04;;;;;;;6.68;3.10;;;;;;;19.03;44.71;102376.66;4985059;28;20098;-69
2023/04/16 10:18:29;;;;;;;6.53;3.05;;;;;;;19.09;44.81;102384.22;4994553;28;20045;-72
2023/04/16 10:20:56;;;;;;;6.47;3.20;;;;;;;19.25;44.06;102383.25;4992684;28;20526;-72
2023/04/16 10:23:21;;;;;;;5.85;2.88;;;;;;;19.36;43.62;102379.00;4988851;28;20053;-72
2023/04/16 10:25:51;;;;;;;10.90;3.10;;;;;;;19.38;43.42;102374.47;5003388;28;20045;-72
2023/04/16 10:28:16;;;;;;;6.35;2.97;;;;;;;19.44;43.39;102383.81;4994973;28;20038;-70
2023/04/16 10:30:51;;;;;;;7.90;3.78;;;;;;;19.44;43.37;102383.81;4967982;28;20038;-71
2023/04/16 10:33:19;;;;;;;7.90;3.22;;;;;;;19.34;43.48;102382.69;4975740;28;20030;-66
2023/04/16 10:35:45;;;;;;;8.13;3.38;;;;;;;19.24;43.85;102389.50;4986705;28;20038;-69
2023/04/16 10:38:27;;;;;;;7.03;3.25;;;;;;;19.15;44.35;102388.25;4981761;28;20042;-70
2023/04/16 10:41:01;;;;;;;8.98;3.20;;;;;;;19.19;44.27;102395.06;4988082;28;20542;-65
2023/04/16 10:43:28;;;;;;;9.68;3.60;;;;;;;19.26;43.98;102390.25;4993295;28;20033;-67
2023/04/16 10:45:54;;;;;;;9.13;3.15;;;;;;;19.28;43.63;102391.84;4990558;28;20034;-67
2023/04/16 10:48:19;;;;;;;6.45;2.97;;;;;;;19.28;43.66;102399.78;4995106;28;20445;-66
2023/04/16 10:50:56;;;;;;;7.80;3.42;;;;;;;19.27;43.65;102386.66;4996329;28;20038;-69
2023/04/16 10:53:27;;;;;;;9.32;3.88;;;;;;;19.29;43.59;102393.53;4986052;28;20037;-66
2023/04/16 10:55:57;;;;;;;10.13;3.40;;;;;;;19.23;43.83;102385.97;4990164;28;20042;-67
2023/04/16 10:58:30;;;;;;;10.05;3.90;;;;;;;19.25;43.98;102393.81;4983971;28;20080;-68
2023/04/16 11:00:58;;;;;;;11.38;5.00;;;;;;;19.24;44.40;102395.63;5001711;28;20044;-68
2023/04/16 11:03:23;;;;;;;12.48;4.97;;;;;;;19.20;44.68;102394.09;4993093;28;20034;-67
2023/04/16 11:05:49;;;;;;;9.95;4.55;;;;;;;19.11;44.88;102392.88;4986609;28;20545;-68
2023/04/16 11:08:15;;;;;;;9.60;5.05;;;;;;;19.05;45.04;102393.25;4992563;28;20034;-65
2023/04/16 11:10:41;;;;;;;9.40;4.68;;;;;;;18.99;45.26;102385.69;4984508;28;20084;-66
2023/04/16 11:13:07;;;;;;;10.02;4.55;;;;;;;18.97;45.25;102385.78;4989396;28;20037;-67
2023/04/16 11:15:33;;;;;;;10.05;5.00;;;;;;;18.94;45.16;102380.69;4997635;28;20549;-66
2023/04/16 11:17:59;;;;;;;15.43;4.50;;;;;;;18.94;45.23;102388.63;4990558;28;20077;-67
2023/04/16 11:20:26;;;;;;;10.82;4.95;;;;;;;18.94;45.29;102390.41;4981027;28;20041;-68